Time;durP1;ratioP1;P1;durP2;ratioP2;P2;SDS_P1;SDS_P2;PMS_P1;PMS_P2;Temp;Humidity;BMP_temperature;BMP_pressure;BME280_temperature;BME280_humidity;BME280_pressure;Samples;Min_cycle;Max_cycle;Signal;HPM_P1;HPM_P2
2022/05/26 00:01:34;;;;;;;1.85;0.65;;;;;;;11.84;89.96;96340.28;5011761;28;24453;-75
2022/05/26 00:04:00;;;;;;;1.40;1.02;;;;;;;11.85;89.04;96343.72;5011673;28;24503;-75
2022/05/26 00:06:27;;;;;;;0.98;0.68;;;;;;;11.80;88.31;96345.72;5011736;28;24420;-75
2022/05/26 00:08:54;;;;;;;2.03;0.80;;;;;;;11.64;90.53;96345.75;5011583;28;24447;-75
2022/05/26 00:11:22;;;;;;;1.50;0.90;;;;;;;11.66;88.86;96349.13;5011627;28;24468;-75
2022/05/26 00:13:48;;;;;;;3.25;0.88;;;;;;;11.49;90.81;96342.28;5011128;28;24424;-75
2022/05/26 00:16:18;;;;;;;2.30;0.68;;;;;;;11.42;91.93;96346.19;5011524;28;24435;-75
2022/05/26 00:18:45;;;;;;;1.30;0.77;;;;;;;11.40;92.41;96358.38;5011273;28;24969;-75
2022/05/26 00:21:11;;;;;;;2.00;0.80;;;;;;;11.45;91.47;96352.94;5011770;28;24416;-75
2022/05/26 00:23:38;;;;;;;2.65;1.05;;;;;;;11.42;92.54;96353.09;5011362;28;24778;-75
2022/05/26 00:26:05;;;;;;;3.33;0.90;;;;;;;11.44;92.69;96352.09;5011594;28;24416;-75
2022/05/26 00:28:31;;;;;;;2.10;0.90;;;;;;;11.44;92.34;96348.69;5011284;28;24491;-75
2022/05/26 00:30:58;;;;;;;1.60;0.75;;;;;;;11.46;91.72;96346.81;5011253;28;24432;-75
2022/05/26 00:33:26;;;;;;;1.73;0.85;;;;;;;11.45;93.35;96345.16;5011156;28;24423;-75
2022/05/26 00:35:53;;;;;;;1.23;0.80;;;;;;;11.54;91.01;96349.84;5010894;28;24435;-75
2022/05/26 00:38:20;;;;;;;1.92;0.93;;;;;;;11.52;91.27;96354.25;5010882;28;24487;-75
2022/05/26 00:40:47;;;;;;;1.40;0.82;;;;;;;11.44;92.00;96352.09;5010371;28;24428;-75
2022/05/26 00:43:14;;;;;;;1.90;0.70;;;;;;;11.39;91.38;96346.34;5011001;28;24450;-75
2022/05/26 00:45:44;;;;;;;1.13;0.70;;;;;;;11.32;91.72;96347.63;5010703;28;24443;-75
2022/05/26 00:48:14;;;;;;;2.00;0.80;;;;;;;11.29;94.71;96340.84;5010817;28;24432;-75
2022/05/26 00:50:46;;;;;;;0.90;0.68;;;;;;;11.35;93.53;96340.50;5010903;28;24825;-75
2022/05/26 00:53:16;;;;;;;1.50;0.65;;;;;;;11.32;92.44;96343.25;5010727;28;24419;-75
2022/05/26 00:55:49;;;;;;;1.77;0.90;;;;;;;11.17;95.13;96341.53;5010900;28;24417;-75
2022/05/26 00:58:19;;;;;;;2.15;0.73;;;;;;;11.28;94.35;96341.78;5010889;28;24436;-75
2022/05/26 01:00:47;;;;;;;1.40;0.73;;;;;;;11.34;93.37;96341.41;5010834;28;24424;-75
2022/05/26 01:03:19;;;;;;;1.20;0.60;;;;;;;11.36;91.50;96342.16;5010687;28;24518;-75
2022/05/26 01:05:53;;;;;;;3.20;0.70;;;;;;;11.31;91.54;96339.00;5010873;28;24487;-75
2022/05/26 01:08:26;;;;;;;1.90;0.70;;;;;;;11.22;92.56;96341.28;5010735;28;24432;-75
2022/05/26 01:10:53;;;;;;;3.50;0.75;;;;;;;11.12;93.16;96343.53;5010866;28;24810;-75
2022/05/26 01:13:22;;;;;;;1.95;0.80;;;;;;;11.11;91.93;96340.09;5010664;28;24545;-75
2022/05/26 01:15:57;;;;;;;2.60;0.95;;;;;;;10.96;92.77;96340.13;5010377;28;24493;-75
2022/05/26 01:18:32;;;;;;;2.30;0.82;;;;;;;10.83;95.16;96333.03;5010390;28;24439;-75
2022/05/26 01:21:08;;;;;;;1.02;0.63;;;;;;;10.87;93.65;96334.53;5010707;28;24431;-75
2022/05/26 01:24:18;;;;;;;1.25;0.73;;;;;;;10.79;95.14;96330.69;5010417;28;24858;-74
2022/05/26 01:27:06;;;;;;;4.13;0.77;;;;;;;10.74;96.45;96336.13;5010346;28;24433;-75
2022/05/26 01:30:10;;;;;;;1.33;0.70;;;;;;;10.80;95.31;96328.03;5010528;28;24455;-75
2022/05/26 01:32:51;;;;;;;1.33;0.70;;;;;;;10.80;95.39;96333.19;4997895;28;24437;-75
2022/05/26 01:35:24;;;;;;;1.00;0.70;;;;;;;10.81;95.29;96324.50;5010403;28;24511;-75
2022/05/26 01:38:09;;;;;;;1.40;0.70;;;;;;;10.79;95.59;96321.19;5010493;28;24411;-75
2022/05/26 01:40:41;;;;;;;1.48;0.82;;;;;;;10.79;96.00;96325.50;5010474;28;24436;-75
2022/05/26 01:43:16;;;;;;;1.00;0.60;;;;;;;10.78;95.25;96323.84;5010256;28;24447;-75
2022/05/26 01:45:50;;;;;;;0.60;0.60;;;;;;;10.82;94.97;96323.56;5010198;28;24416;-75
2022/05/26 01:48:25;;;;;;;1.10;0.65;;;;;;;10.77;95.03;96327.34;5010390;28;24528;-75
2022/05/26 01:50:57;;;;;;;0.90;0.60;;;;;;;10.81;95.31;96329.69;5010309;28;24471;-75
2022/05/26 01:53:28;;;;;;;1.45;0.68;;;;;;;10.91;92.81;96324.84;5014085;28;24445;-75
2022/05/26 01:56:00;;;;;;;1.83;0.70;;;;;;;10.78;93.36;96326.44;5013684;28;24795;-75
2022/05/26 01:58:36;;;;;;;0.45;0.40;;;;;;;10.66;93.17;96320.16;5013988;28;25172;-75
2022/05/26 02:01:12;;;;;;;1.08;0.60;;;;;;;10.56;93.34;96318.97;5014032;28;24447;-75
2022/05/26 02:03:43;;;;;;;0.98;0.70;;;;;;;10.50;94.62;96321.91;5013669;28;24471;-75
2022/05/26 02:06:19;;;;;;;1.33;0.70;;;;;;;10.40;97.15;96319.81;5013618;28;24474;-75
2022/05/26 02:08:53;;;;;;;1.70;0.70;;;;;;;10.42;97.49;96330.09;5013871;28;24428;-75
2022/05/26 02:11:22;;;;;;;3.10;0.70;;;;;;;10.46;97.69;96328.19;5013952;28;24467;-75
2022/05/26 02:13:53;;;;;;;2.72;0.80;;;;;;;10.50;98.21;96334.88;5013518;28;24416;-75
2022/05/26 02:16:23;;;;;;;1.10;0.80;;;;;;;10.59;98.18;96324.00;5013559;28;24984;-75
2022/05/26 02:18:55;;;;;;;3.50;0.55;;;;;;;10.61;98.43;96332.53;5013654;28;24436;-75
2022/05/26 02:21:27;;;;;;;1.73;0.75;;;;;;;10.59;98.08;96324.84;5013642;28;24770;-75
2022/05/26 02:24:02;;;;;;;1.60;0.60;;;;;;;10.65;97.00;96324.50;5013643;28;25041;-75
2022/05/26 02:26:30;;;;;;;2.50;1.02;;;;;;;10.70;94.71;96332.03;5013428;28;24953;-75
2022/05/26 02:31:42;;;;;;;1.67;0.70;;;;;;;10.56;98.14;96331.94;5013531;28;24499;-75
2022/05/26 02:34:11;;;;;;;1.23;0.68;;;;;;;10.56;99.12;96324.16;5013328;28;24466;-75
2022/05/26 02:36:39;;;;;;;1.60;0.73;;;;;;;10.82;90.04;96330.50;5013465;28;24482;-75
2022/05/26 02:39:07;;;;;;;3.05;0.75;;;;;;;10.23;94.72;96321.56;5013294;28;24528;-75
2022/05/26 02:41:35;;;;;;;1.73;0.68;;;;;;;10.11;93.18;96330.81;5013115;28;24942;-75
2022/05/26 02:44:03;;;;;;;1.00;0.70;;;;;;;9.96;95.94;96329.03;5013038;28;24846;-75
2022/05/26 02:46:43;;;;;;;2.63;1.10;;;;;;;9.90;97.21;96338.78;5013379;28;24428;-74
2022/05/26 02:49:23;;;;;;;1.27;0.75;;;;;;;9.90;98.10;96325.00;5012987;28;25012;-75
2022/05/26 02:51:59;;;;;;;1.48;0.60;;;;;;;9.94;98.20;96332.53;5013146;28;24416;-75
2022/05/26 02:54:34;;;;;;;2.93;1.17;;;;;;;10.02;99.13;96333.91;5012833;28;25022;-75
2022/05/26 02:57:17;;;;;;;4.00;0.63;;;;;;;10.11;98.59;96334.25;5013015;28;24837;-75
2022/05/26 02:59:50;;;;;;;1.33;0.60;;;;;;;10.08;100.00;96329.22;5012840;28;24444;-75
2022/05/26 03:02:22;;;;;;;1.25;0.57;;;;;;;10.20;100.00;96335.53;5012314;28;24424;-75
2022/05/26 03:04:55;;;;;;;0.95;0.80;;;;;;;10.02;100.00;96336.50;5012930;28;24764;-74
2022/05/26 03:07:26;;;;;;;1.90;0.60;;;;;;;9.95;100.00;96330.78;5012893;28;24512;-75
2022/05/26 03:09:54;;;;;;;1.63;0.77;;;;;;;9.93;100.00;96338.59;5012777;28;24431;-75
2022/05/26 03:12:23;;;;;;;2.03;0.60;;;;;;;10.08;100.00;96338.75;5012555;28;24427;-75
2022/05/26 03:14:50;;;;;;;2.30;0.73;;;;;;;9.93;100.00;96330.00;5012396;28;24428;-74
2022/05/26 03:17:16;;;;;;;0.60;0.57;;;;;;;10.00;100.00;96333.97;5012797;28;24479;-75
2022/05/26 03:19:43;;;;;;;0.98;0.60;;;;;;;9.95;100.00;96330.78;5012481;28;24941;-75
2022/05/26 03:22:11;;;;;;;1.42;0.70;;;;;;;10.10;100.00;96334.34;5012357;28;24423;-75
2022/05/26 03:24:38;;;;;;;1.60;0.60;;;;;;;10.22;100.00;96333.69;5012089;28;24456;-75
2022/05/26 03:27:05;;;;;;;3.47;0.68;;;;;;;10.26;100.00;96336.97;5012157;28;24471;-75
2022/05/26 03:29:32;;;;;;;0.60;0.50;;;;;;;10.01;100.00;96345.16;5011657;28;24424;-75
2022/05/26 03:31:58;;;;;;;3.30;0.90;;;;;;;10.00;100.00;96341.72;5011696;28;24424;-75
2022/05/26 03:42:39;;;;;;;0.98;0.70;;;;;;;9.96;100.00;96350.56;5011934;28;24487;-74
2022/05/26 03:45:08;;;;;;;2.00;0.60;;;;;;;9.74;100.00;96348.22;5011880;28;24822;-75
2022/05/26 03:47:34;;;;;;;2.03;0.85;;;;;;;9.41;100.00;96355.91;5011783;28;24424;-73
2022/05/26 03:50:01;;;;;;;1.55;0.88;;;;;;;9.21;100.00;96364.63;5026845;22;24489;-78
2022/05/26 03:52:28;;;;;;;2.40;0.93;;;;;;;9.12;100.00;96365.91;5011687;28;24475;-76
2022/05/26 03:54:55;;;;;;;2.50;0.70;;;;;;;9.31;100.00;96365.03;5011884;28;24475;-77
2022/05/26 03:57:26;;;;;;;2.22;0.80;;;;;;;9.40;100.00;96368.00;5011957;28;24428;-76
2022/05/26 03:59:52;;;;;;;2.23;0.67;;;;;;;9.56;100.00;96367.25;5012047;28;20762;-76
2022/05/26 04:02:19;;;;;;;2.20;0.60;;;;;;;9.62;100.00;96365.19;5011711;28;24453;-75
2022/05/26 04:04:46;;;;;;;1.98;0.90;;;;;;;9.80;100.00;96366.03;5011811;28;24471;-76
2022/05/26 04:07:12;;;;;;;0.82;0.60;;;;;;;9.87;100.00;96375.16;5012009;28;24490;-77
2022/05/26 04:09:41;;;;;;;2.17;0.75;;;;;;;10.09;100.00;96377.50;5011841;28;24423;-78
2022/05/26 04:12:08;;;;;;;1.27;0.73;;;;;;;10.23;100.00;96374.19;5011929;28;24855;-76
2022/05/26 04:14:35;;;;;;;0.73;0.63;;;;;;;10.11;100.00;96385.19;5010480;28;24419;-76
2022/05/26 04:17:02;;;;;;;0.80;0.45;;;;;;;10.20;100.00;96392.50;5011483;28;24849;-76
2022/05/26 04:19:29;;;;;;;1.73;0.90;;;;;;;10.21;100.00;96395.91;5011141;28;24424;-77
2022/05/26 04:24:41;;;;;;;2.83;1.00;;;;;;;10.01;100.00;96400.34;5011021;28;24451;-76
2022/05/26 04:27:08;;;;;;;0.52;0.50;;;;;;;10.15;100.00;96403.06;5011497;28;24818;-76
2022/05/26 04:29:36;;;;;;;1.75;0.82;;;;;;;10.36;100.00;96402.91;5011306;28;24436;-77
2022/05/26 04:32:03;;;;;;;2.92;0.90;;;;;;;10.51;100.00;96406.47;5011141;28;24942;-76
2022/05/26 04:34:30;;;;;;;1.80;0.65;;;;;;;10.64;100.00;96407.47;5011271;28;25136;-76
2022/05/26 04:36:56;;;;;;;2.03;0.73;;;;;;;10.65;100.00;96407.41;5011493;28;24428;-76
2022/05/26 04:39:23;;;;;;;1.80;0.80;;;;;;;10.69;100.00;96405.50;5011155;28;24427;-77
2022/05/26 04:41:51;;;;;;;1.45;0.70;;;;;;;10.84;100.00;96403.84;5010968;28;24981;-76
2022/05/26 04:44:18;;;;;;;1.20;0.70;;;;;;;10.92;100.00;96406.00;5010606;28;24490;-76
2022/05/26 04:46:45;;;;;;;1.75;0.77;;;;;;;11.06;100.00;96406.94;5011063;28;24478;-77
2022/05/26 04:49:11;;;;;;;1.45;0.68;;;;;;;11.09;100.00;96406.78;5010886;28;24495;-76
2022/05/26 04:51:39;;;;;;;3.33;0.80;;;;;;;11.18;100.00;96409.78;5011053;28;24805;-76
2022/05/26 04:54:08;;;;;;;2.97;0.85;;;;;;;11.12;100.00;96411.78;5010768;28;24962;-76
2022/05/26 04:56:35;;;;;;;2.05;0.60;;;;;;;11.13;100.00;96412.63;5010747;28;24428;-76
2022/05/26 04:59:03;;;;;;;2.28;0.70;;;;;;;11.21;100.00;96414.81;5010798;28;24859;-76
2022/05/26 05:01:30;;;;;;;2.05;0.57;;;;;;;11.22;100.00;96417.28;5011080;28;24439;-76
2022/05/26 05:03:56;;;;;;;2.60;0.85;;;;;;;11.20;100.00;96418.28;5010657;28;24845;-76
2022/05/26 05:06:23;;;;;;;1.77;0.65;;;;;;;11.33;98.87;96420.13;5010801;28;24459;-77
2022/05/26 05:08:49;;;;;;;1.90;0.70;;;;;;;11.50;99.61;96423.56;5010624;28;24850;-77
2022/05/26 05:11:16;;;;;;;1.15;0.52;;;;;;;11.47;99.35;96421.13;5010718;28;24771;-76
2022/05/26 05:13:42;;;;;;;1.85;0.80;;;;;;;11.52;100.00;96419.09;5010349;28;25000;-76
2022/05/26 05:16:15;;;;;;;5.27;0.77;;;;;;;11.71;98.09;96426.69;5010600;28;24432;-76
2022/05/26 05:18:44;;;;;;;2.85;0.60;;;;;;;11.85;97.13;96426.78;5010518;28;24910;-76
2022/05/26 05:21:14;;;;;;;0.93;0.60;;;;;;;11.97;95.79;96438.22;5010553;28;24833;-74
2022/05/26 05:23:44;;;;;;;3.08;0.70;;;;;;;11.89;96.13;96433.47;5010372;28;24436;-74
2022/05/26 05:26:15;;;;;;;1.48;0.70;;;;;;;12.01;96.02;96444.88;5012466;28;24424;-74
2022/05/26 05:28:46;;;;;;;2.28;0.80;;;;;;;12.11;96.26;96441.69;5014731;28;24516;-74
2022/05/26 05:31:20;;;;;;;1.90;0.65;;;;;;;12.07;94.71;96442.78;5014605;28;24835;-74
2022/05/26 05:33:52;;;;;;;1.65;0.80;;;;;;;12.07;96.11;96437.59;5014333;28;24412;-74
2022/05/26 05:36:23;;;;;;;0.93;0.60;;;;;;;12.01;96.07;96442.28;5014362;28;24486;-74
2022/05/26 05:38:49;;;;;;;1.15;0.80;;;;;;;11.83;98.55;96442.44;5014100;28;24440;-74
2022/05/26 05:41:17;;;;;;;1.80;0.90;;;;;;;11.79;99.97;96453.91;5014505;28;24500;-75
2022/05/26 05:43:43;;;;;;;1.00;0.73;;;;;;;11.76;100.00;96456.66;5014073;28;24454;-74
2022/05/26 05:46:11;;;;;;;2.05;0.80;;;;;;;11.94;100.00;96457.41;5014221;28;24439;-74
2022/05/26 05:48:39;;;;;;;1.77;0.68;;;;;;;12.00;99.90;96457.03;5014286;28;24486;-74
2022/05/26 05:51:05;;;;;;;1.42;0.70;;;;;;;11.96;99.60;96452.94;5013984;28;24424;-74
2022/05/26 05:53:32;;;;;;;2.40;0.80;;;;;;;12.02;99.00;96457.81;5014210;28;24504;-74
2022/05/26 05:55:58;;;;;;;3.95;0.95;;;;;;;12.08;98.08;96456.59;5013910;28;24421;-75
2022/05/26 05:58:25;;;;;;;3.55;0.90;;;;;;;12.20;98.50;96461.09;5013958;28;24436;-74
2022/05/26 06:00:51;;;;;;;1.60;0.60;;;;;;;12.30;97.89;96466.56;5014022;28;24535;-74
2022/05/26 06:03:18;;;;;;;1.17;0.50;;;;;;;12.40;97.82;96469.47;5013786;28;25040;-73
2022/05/26 06:05:46;;;;;;;2.15;0.65;;;;;;;12.49;98.92;96469.75;5013505;28;24519;-74
2022/05/26 06:08:12;;;;;;;2.00;0.70;;;;;;;12.59;98.13;96470.06;5013933;28;24843;-74
2022/05/26 06:10:39;;;;;;;0.80;0.50;;;;;;;12.63;96.63;96468.94;5014088;28;24487;-74
2022/05/26 06:13:05;;;;;;;1.75;0.70;;;;;;;12.67;95.63;96472.19;5013688;28;24980;-74
2022/05/26 06:15:33;;;;;;;1.50;0.70;;;;;;;12.74;95.13;96473.50;5013637;28;24512;-74
2022/05/26 06:18:00;;;;;;;1.10;0.63;;;;;;;12.84;94.09;96475.44;5013542;28;24535;-74
2022/05/26 06:20:27;;;;;;;2.00;0.67;;;;;;;12.81;93.17;96467.00;5013394;28;24989;-74
2022/05/26 06:22:55;;;;;;;4.85;1.05;;;;;;;12.92;92.96;96476.75;5013489;28;24942;-74
2022/05/26 06:25:22;;;;;;;1.52;0.60;;;;;;;12.99;92.63;96478.88;5013411;28;24495;-74
2022/05/26 06:30:33;;;;;;;6.15;0.60;;;;;;;13.07;90.63;96476.66;5013389;28;24408;-74
2022/05/26 06:38:33;;;;;;;2.90;0.80;;;;;;;13.20;90.88;96475.88;5012307;28;24431;-74
2022/05/26 06:42:05;;;;;;;1.15;0.77;;;;;;;13.30;89.95;96484.81;5013160;28;24429;-74
2022/05/26 06:43:46;;;;;;;1.45;0.60;;;;;;;13.45;89.67;96491.66;5012578;28;24445;-74
2022/05/26 06:46:13;;;;;;;5.47;0.80;;;;;;;13.56;88.92;96485.78;5013090;28;24429;-74
2022/05/26 06:48:40;;;;;;;0.95;0.60;;;;;;;13.64;87.39;96490.50;5013028;28;24432;-74
2022/05/26 06:51:07;;;;;;;1.27;0.77;;;;;;;13.72;86.88;96493.44;5013036;28;24421;-74
2022/05/26 06:53:35;;;;;;;2.30;0.60;;;;;;;13.93;84.82;96496.47;5012826;28;24427;-74
2022/05/26 06:56:01;;;;;;;1.67;0.80;;;;;;;14.11;85.22;96500.47;5012802;28;24416;-74
2022/05/26 06:58:28;;;;;;;1.50;0.65;;;;;;;14.18;83.23;96496.53;5012984;28;24528;-74
2022/05/26 07:00:54;;;;;;;1.58;1.00;;;;;;;14.44;82.75;96496.59;5012918;28;24425;-74
2022/05/26 07:03:22;;;;;;;1.27;0.77;;;;;;;14.71;80.15;96499.13;5012914;28;24976;-74
2022/05/26 07:05:50;;;;;;;1.60;0.60;;;;;;;14.89;77.98;96504.88;5012471;28;24534;-74
2022/05/26 07:08:16;;;;;;;2.50;0.77;;;;;;;15.08;77.63;96507.88;5012325;28;24427;-74
2022/05/26 07:10:45;;;;;;;1.42;0.50;;;;;;;15.30;76.15;96502.03;5012523;28;24486;-74
2022/05/26 07:13:12;;;;;;;0.80;0.50;;;;;;;15.61;75.81;96502.44;5012699;28;24405;-74
2022/05/26 07:15:39;;;;;;;1.27;0.50;;;;;;;15.93;74.75;96501.00;5012208;28;24424;-74
2022/05/26 07:18:06;;;;;;;1.25;0.60;;;;;;;16.14;71.05;96505.63;5012474;28;24515;-74
2022/05/26 07:20:33;;;;;;;1.13;0.60;;;;;;;15.96;71.39;96500.78;5012811;28;24416;-74
2022/05/26 07:22:59;;;;;;;1.70;0.70;;;;;;;16.14;71.08;96501.22;5012217;28;24422;-74
2022/05/26 07:25:26;;;;;;;1.00;0.57;;;;;;;16.40;71.12;96507.16;5012164;28;24463;-74
2022/05/26 07:27:53;;;;;;;1.77;0.60;;;;;;;16.07;67.36;96507.84;5012334;28;24417;-74
2022/05/26 07:30:20;;;;;;;2.15;0.65;;;;;;;16.11;70.08;96511.91;5012342;28;24463;-74
2022/05/26 07:32:46;;;;;;;6.60;1.15;;;;;;;16.13;67.88;96515.25;5012237;28;24416;-74
2022/05/26 07:35:13;;;;;;;1.30;0.60;;;;;;;15.90;67.95;96508.25;5012018;28;24494;-74
2022/05/26 07:43:09;;;;;;;1.65;0.70;;;;;;;16.08;68.86;96512.13;5012106;28;24424;-74
2022/05/26 07:45:36;;;;;;;2.45;0.77;;;;;;;16.19;69.52;96516.56;5011701;28;24472;-74
2022/05/26 07:48:03;;;;;;;2.33;0.73;;;;;;;16.18;69.37;96520.13;5011556;28;25016;-73
2022/05/26 07:50:30;;;;;;;2.00;0.70;;;;;;;16.01;68.45;96523.97;5012135;28;24424;-74
2022/05/26 07:52:56;;;;;;;1.90;0.90;;;;;;;15.89;70.54;96517.84;5012132;28;24424;-74
2022/05/26 07:55:23;;;;;;;2.10;0.87;;;;;;;15.86;68.83;96510.22;5012077;28;24502;-73
2022/05/26 07:57:49;;;;;;;6.13;0.60;;;;;;;15.83;68.97;96526.13;5011768;28;24786;-74
2022/05/26 08:00:18;;;;;;;1.38;0.50;;;;;;;15.75;69.75;96518.00;5011598;28;24802;-74
2022/05/26 08:02:44;;;;;;;3.30;0.55;;;;;;;15.79;69.79;96529.91;5011851;28;24793;-74
2022/05/26 08:05:13;;;;;;;2.38;0.73;;;;;;;15.73;69.95;96520.75;5011427;28;24437;-74
2022/05/26 08:07:39;;;;;;;2.72;0.70;;;;;;;15.69;69.36;96532.34;5011637;28;24427;-73
2022/05/26 08:10:07;;;;;;;1.95;0.52;;;;;;;15.70;68.74;96533.19;5011463;28;24424;-74
2022/05/26 08:12:34;;;;;;;2.10;0.47;;;;;;;15.72;69.55;96532.16;5011562;28;24425;-74
2022/05/26 08:15:00;;;;;;;2.90;0.73;;;;;;;15.68;68.84;96535.91;5011184;28;24421;-74
2022/05/26 08:17:28;;;;;;;3.13;0.60;;;;;;;15.45;70.97;96534.03;5011672;28;24437;-74
2022/05/26 08:19:54;;;;;;;2.17;0.65;;;;;;;15.48;71.20;96532.06;5011419;28;24825;-74
2022/05/26 08:22:21;;;;;;;1.70;0.60;;;;;;;15.39;69.97;96535.31;5011664;28;24432;-74
2022/05/26 08:24:50;;;;;;;1.33;0.50;;;;;;;15.38;70.10;96544.06;5011139;28;24451;-74
2022/05/26 08:27:17;;;;;;;2.20;0.50;;;;;;;15.41;70.28;96545.63;5011165;28;24943;-74
2022/05/26 08:29:43;;;;;;;6.43;0.88;;;;;;;15.42;69.90;96544.69;5011346;28;24432;-74
2022/05/26 08:32:10;;;;;;;1.38;0.70;;;;;;;15.44;69.94;96542.81;5011361;28;24424;-74
2022/05/26 08:34:38;;;;;;;4.72;0.70;;;;;;;15.52;70.29;96542.28;5011057;28;24431;-74
2022/05/26 08:37:05;;;;;;;1.63;0.70;;;;;;;15.69;69.28;96552.41;5011091;28;24425;-73
2022/05/26 08:39:31;;;;;;;0.70;0.40;;;;;;;15.94;68.08;96554.94;5010769;28;25023;-74
2022/05/26 08:41:58;;;;;;;2.17;0.80;;;;;;;16.08;66.37;96553.94;5010946;28;24424;-74
2022/05/26 08:44:29;;;;;;;3.65;0.70;;;;;;;16.00;68.00;96555.44;5010951;28;24456;-74
2022/05/26 08:47:01;;;;;;;0.80;0.50;;;;;;;16.10;66.40;96559.06;5011113;28;24520;-73
2022/05/26 08:49:34;;;;;;;2.40;0.90;;;;;;;16.10;65.89;96557.28;5010824;28;24495;-73
2022/05/26 08:52:08;;;;;;;1.13;0.63;;;;;;;16.06;65.92;96555.00;5010912;28;24862;-74
2022/05/26 08:54:40;;;;;;;0.90;0.50;;;;;;;16.09;67.72;96553.00;5010927;28;24440;-73
2022/05/26 08:57:11;;;;;;;1.35;0.77;;;;;;;15.97;66.61;96554.72;5010996;28;24436;-74
2022/05/26 08:59:42;;;;;;;1.02;0.50;;;;;;;15.88;66.42;96557.16;5010556;28;24486;-73
2022/05/26 09:02:22;;;;;;;5.00;0.95;;;;;;;15.86;67.19;96562.47;5010928;28;24961;-74
2022/05/26 09:04:49;;;;;;;3.50;0.80;;;;;;;15.85;66.90;96558.22;5010473;28;24440;-74
2022/05/26 09:12:57;;;;;;;1.83;0.60;;;;;;;15.95;67.70;96563.63;5010779;28;24979;-74
2022/05/26 09:15:23;;;;;;;2.00;0.65;;;;;;;16.03;68.27;96573.53;5010333;28;24938;-73
2022/05/26 09:17:50;;;;;;;1.67;0.63;;;;;;;16.14;67.24;96566.56;5010621;28;25013;-74
2022/05/26 09:20:32;;;;;;;1.88;0.50;;;;;;;16.04;68.45;96576.00;5010659;28;24425;-73
2022/05/26 09:23:11;;;;;;;4.75;0.85;;;;;;;16.00;68.01;96576.34;5010716;28;24434;-74
2022/05/26 09:25:43;;;;;;;1.20;0.52;;;;;;;15.86;69.07;96578.16;5010197;28;24437;-74
2022/05/26 09:28:11;;;;;;;1.63;0.60;;;;;;;15.88;69.19;96580.66;5010748;28;24424;-74
2022/05/26 09:30:39;;;;;;;1.80;0.80;;;;;;;15.85;69.54;96573.88;5010887;28;24507;-74
2022/05/26 09:33:18;;;;;;;4.25;0.60;;;;;;;15.95;68.89;96577.50;5010432;28;24425;-74
2022/05/26 09:35:45;;;;;;;2.33;0.70;;;;;;;16.00;69.44;96576.34;5010356;28;24436;-73
2022/05/26 09:38:18;;;;;;;3.95;0.63;;;;;;;15.87;68.94;96582.44;5010318;28;24427;-74
2022/05/26 09:40:48;;;;;;;3.38;0.60;;;;;;;15.93;70.01;96589.84;5010609;28;24482;-74
2022/05/26 09:43:25;;;;;;;1.48;0.80;;;;;;;15.69;69.20;96584.59;5010508;28;24431;-74
2022/05/26 09:45:54;;;;;;;1.70;0.73;;;;;;;15.53;69.58;96588.31;5010245;28;24444;-73
2022/05/26 09:50:53;;;;;;;2.28;0.82;;;;;;;15.54;71.61;96590.84;5027986;28;24802;-77
2022/05/26 09:53:32;;;;;;;1.42;0.60;;;;;;;15.46;71.97;96587.91;5030495;28;24896;-76
2022/05/26 09:55:59;;;;;;;2.47;0.80;;;;;;;15.58;71.66;96596.69;5030615;28;24474;-77
2022/05/26 09:58:29;;;;;;;2.17;0.60;;;;;;;15.64;71.86;96598.84;5030547;28;24419;-77
2022/05/26 10:00:58;;;;;;;2.50;0.70;;;;;;;15.76;70.62;96597.19;5030809;28;24431;-77
2022/05/26 10:03:33;;;;;;;2.40;0.80;;;;;;;15.66;70.86;96602.25;5030577;28;24450;-77
2022/05/26 10:06:11;;;;;;;2.30;0.85;;;;;;;15.74;70.68;96597.31;5030618;28;24446;-77
2022/05/26 10:08:47;;;;;;;3.05;1.05;;;;;;;15.63;72.06;96607.63;5030703;28;24816;-76
2022/05/26 10:11:26;;;;;;;2.92;0.85;;;;;;;15.65;71.42;96605.78;5030595;28;24428;-77
2022/05/26 10:14:13;;;;;;;3.13;0.90;;;;;;;15.75;70.31;96609.41;5033735;28;24445;-77
2022/05/26 10:16:46;;;;;;;2.23;0.67;;;;;;;15.66;71.23;96600.47;5034266;28;24824;-77
2022/05/26 10:19:28;;;;;;;4.18;0.80;;;;;;;15.78;72.28;96601.38;5033951;28;24423;-77
2022/05/26 10:22:14;;;;;;;3.03;0.85;;;;;;;15.97;71.93;96600.91;5033855;28;24424;-77
2022/05/26 10:24:57;;;;;;;1.00;0.60;;;;;;;16.12;68.79;96601.59;5033705;28;24467;-77
2022/05/26 10:27:37;;;;;;;3.53;0.95;;;;;;;16.15;69.21;96604.00;5034057;28;24419;-77
2022/05/26 10:30:19;;;;;;;2.17;0.90;;;;;;;16.00;69.88;96599.84;5034008;28;24435;-77
2022/05/26 10:32:57;;;;;;;5.60;0.80;;;;;;;15.88;71.37;96594.56;5033851;28;24427;-77
2022/05/26 10:35:26;;;;;;;4.78;1.13;;;;;;;15.84;70.95;96602.72;5033423;28;24466;-78
2022/05/26 10:38:06;;;;;;;2.25;0.95;;;;;;;15.82;69.89;96602.00;5033806;28;24427;-77
2022/05/26 10:40:40;;;;;;;1.17;0.60;;;;;;;15.85;68.33;96604.41;5038764;28;24455;-78
2022/05/26 10:43:11;;;;;;;1.88;0.65;;;;;;;15.91;68.62;96598.75;5033290;28;24452;-75
2022/05/26 10:45:40;;;;;;;1.40;0.70;;;;;;;16.03;68.48;96599.66;5032857;28;24873;-76
2022/05/26 10:48:10;;;;;;;2.00;1.20;;;;;;;16.09;70.07;96605.28;5033409;28;24412;-75
2022/05/26 10:50:40;;;;;;;4.32;1.10;;;;;;;16.02;69.80;96597.97;5032901;28;24606;-76
2022/05/26 10:53:18;;;;;;;5.63;1.30;;;;;;;16.02;69.69;96596.22;5033015;28;24774;-75
2022/05/26 10:55:54;;;;;;;2.00;1.00;;;;;;;16.11;70.26;96597.31;5032751;28;24865;-76
2022/05/26 10:58:29;;;;;;;1.15;0.70;;;;;;;16.29;69.72;96595.16;5032843;28;24416;-76
2022/05/26 11:01:00;;;;;;;2.05;0.68;;;;;;;16.33;68.69;96592.19;5032637;28;24941;-76
2022/05/26 11:03:35;;;;;;;1.45;0.60;;;;;;;16.41;68.65;96594.25;5032892;28;24973;-76
2022/05/26 11:06:05;;;;;;;2.42;0.73;;;;;;;16.50;68.33;96595.34;5032493;28;24977;-75
2022/05/26 11:08:40;;;;;;;2.38;0.88;;;;;;;16.53;67.99;96602.97;5032733;28;24467;-75
2022/05/26 11:11:14;;;;;;;3.30;0.80;;;;;;;16.52;68.04;96602.16;5032442;28;24964;-76
2022/05/26 11:13:52;;;;;;;1.75;1.00;;;;;;;16.59;68.63;96600.75;5032475;28;24434;-76
2022/05/26 11:19:25;;;;;;;3.50;0.87;;;;;;;16.25;69.28;96605.00;5032374;28;24419;-75
2022/05/26 11:21:54;;;;;;;1.52;0.90;;;;;;;16.10;69.61;96599.09;5032484;28;24815;-76
2022/05/26 11:24:22;;;;;;;1.63;1.00;;;;;;;16.00;70.00;96608.53;5031743;28;24428;-76
2022/05/26 11:26:54;;;;;;;1.80;0.70;;;;;;;16.05;70.58;96608.19;5032174;28;24459;-76
2022/05/26 11:29:25;;;;;;;2.47;0.80;;;;;;;15.88;71.54;96606.78;5032427;28;24430;-76
2022/05/26 11:37:40;;;;;;;2.80;0.82;;;;;;;15.52;72.91;96608.38;5032136;28;24407;-76
2022/05/26 11:40:09;;;;;;;7.50;1.30;;;;;;;15.63;74.46;96610.25;5032005;28;24503;-75
2022/05/26 11:42:50;;;;;;;2.30;0.90;;;;;;;15.57;73.18;96611.50;5032023;28;24423;-76
2022/05/26 11:45:20;;;;;;;2.20;0.57;;;;;;;15.68;74.16;96608.19;5031471;28;24443;-76
2022/05/26 11:47:53;;;;;;;1.40;0.77;;;;;;;15.71;74.09;96610.56;5031829;28;24967;-76
2022/05/26 11:50:51;;;;;;;2.37;0.97;;;;;;;15.80;74.12;96603.91;5031714;28;24424;-75
2022/05/26 11:53:41;;;;;;;3.22;1.02;;;;;;;15.72;75.06;96610.50;5031587;28;24416;-76
2022/05/26 11:56:40;;;;;;;6.30;1.00;;;;;;;15.68;75.92;96606.44;5031734;28;24972;-75
2022/05/26 11:59:26;;;;;;;2.72;1.00;;;;;;;15.70;74.65;96601.91;5031979;28;24428;-76
2022/05/26 12:02:38;;;;;;;2.13;0.90;;;;;;;15.90;74.63;96604.88;5031645;28;24426;-75
2022/05/26 12:05:41;;;;;;;3.50;0.73;;;;;;;16.14;75.54;96604.94;5031180;28;24503;-75
2022/05/26 12:08:25;;;;;;;2.08;0.90;;;;;;;16.39;74.25;96593.56;5031218;28;24419;-76
2022/05/26 12:10:54;;;;;;;2.75;1.23;;;;;;;16.37;73.90;96595.44;5031565;28;24436;-76
2022/05/26 12:13:33;;;;;;;1.23;0.63;;;;;;;16.65;71.57;96599.47;5031543;28;24816;-75
2022/05/26 12:16:25;;;;;;;2.75;1.00;;;;;;;17.02;69.29;96600.22;5031386;28;24506;-75
2022/05/26 12:18:55;;;;;;;2.13;1.03;;;;;;;16.73;70.08;96594.50;5031168;28;24436;-76
2022/05/26 12:21:38;;;;;;;6.55;1.17;;;;;;;16.92;69.53;96597.44;5031548;28;24432;-75
2022/05/26 12:24:42;;;;;;;1.30;0.77;;;;;;;16.86;67.80;96591.84;5031325;28;24411;-75
2022/05/26 12:27:09;;;;;;;3.30;0.80;;;;;;;16.88;67.96;96589.94;5030964;28;24485;-75
2022/05/26 12:30:01;;;;;;;2.05;0.82;;;;;;;16.80;68.66;96587.91;5031360;28;24841;-76
2022/05/26 12:32:32;;;;;;;3.80;0.80;;;;;;;16.63;69.61;96585.66;5031149;28;24451;-75
2022/05/26 12:35:10;;;;;;;7.40;0.90;;;;;;;16.57;68.21;96594.78;5030188;28;24440;-76